sensor_id;sensor_type;location;lat;lon;timestamp;pressure;altitude;pressure_sealevel;temperature;humidity
79415;BME280;68864;44.972;19.612;2023-09-19T00:02:01;100506.34;;;23.67;52.44
79415;BME280;68864;44.972;19.612;2023-09-19T00:04:32;100501.44;;;23.67;52.55
79415;BME280;68864;44.972;19.612;2023-09-19T00:06:59;100494.97;;;23.67;52.38
79415;BME280;68864;44.972;19.612;2023-09-19T00:09:28;100489.63;;;23.69;52.03
79415;BME280;68864;44.972;19.612;2023-09-19T00:11:55;100478.59;;;23.58;52.24
79415;BME280;68864;44.972;19.612;2023-09-19T00:14:24;100489.75;;;23.53;52.67
79415;BME280;68864;44.972;19.612;2023-09-19T00:16:51;100487.78;;;23.62;52.39
79415;BME280;68864;44.972;19.612;2023-09-19T00:19:19;100472.69;;;23.53;52.27
79415;BME280;68864;44.972;19.612;2023-09-19T00:21:47;100487.78;;;23.50;52.81
79415;BME280;68864;44.972;19.612;2023-09-19T00:24:15;100475.03;;;23.54;52.44
79415;BME280;68864;44.972;19.612;2023-09-19T00:26:42;100479.03;;;23.57;52.57
79415;BME280;68864;44.972;19.612;2023-09-19T00:29:11;100472.88;;;23.46;52.68
79415;BME280;68864;44.972;19.612;2023-09-19T00:31:43;100485.16;;;23.55;52.71
79415;BME280;68864;44.972;19.612;2023-09-19T00:34:09;100476.63;;;23.55;52.60
79415;BME280;68864;44.972;19.612;2023-09-19T00:36:36;100479.00;;;23.44;53.06
79415;BME280;68864;44.972;19.612;2023-09-19T00:39:05;100475.97;;;23.51;52.67
79415;BME280;68864;44.972;19.612;2023-09-19T00:41:34;100464.59;;;23.51;52.76
79415;BME280;68864;44.972;19.612;2023-09-19T00:44:01;100460.94;;;23.51;52.54
79415;BME280;68864;44.972;19.612;2023-09-19T00:46:30;100456.16;;;23.48;52.83
79415;BME280;68864;44.972;19.612;2023-09-19T00:48:58;100458.28;;;23.44;52.76
79415;BME280;68864;44.972;19.612;2023-09-19T00:51:25;100453.03;;;23.42;52.71
79415;BME280;68864;44.972;19.612;2023-09-19T00:53:53;100457.94;;;23.42;52.90
79415;BME280;68864;44.972;19.612;2023-09-19T00:56:22;100458.50;;;23.36;52.99
79415;BME280;68864;44.972;19.612;2023-09-19T00:58:49;100455.31;;;23.34;52.89
79415;BME280;68864;44.972;19.612;2023-09-19T01:01:15;100457.81;;;23.20;53.55
79415;BME280;68864;44.972;19.612;2023-09-19T01:03:44;100460.41;;;23.27;53.16
79415;BME280;68864;44.972;19.612;2023-09-19T01:06:11;100455.66;;;23.24;53.18
79415;BME280;68864;44.972;19.612;2023-09-19T01:08:38;100454.41;;;23.25;53.29
79415;BME280;68864;44.972;19.612;2023-09-19T01:11:07;100463.16;;;23.18;53.73
79415;BME280;68864;44.972;19.612;2023-09-19T01:13:46;100440.63;;;23.23;53.76
79415;BME280;68864;44.972;19.612;2023-09-19T01:16:20;100433.94;;;23.30;53.43
79415;BME280;68864;44.972;19.612;2023-09-19T01:18:59;100446.47;;;23.32;53.24
79415;BME280;68864;44.972;19.612;2023-09-19T01:21:33;100458.63;;;23.33;53.20
79415;BME280;68864;44.972;19.612;2023-09-19T01:24:52;100467.72;;;23.28;53.20
79415;BME280;68864;44.972;19.612;2023-09-19T01:27:36;100463.19;;;23.30;53.45
79415;BME280;68864;44.972;19.612;2023-09-19T01:30:14;100461.13;;;23.31;53.66
79415;BME280;68864;44.972;19.612;2023-09-19T01:32:42;100472.38;;;23.34;53.43
79415;BME280;68864;44.972;19.612;2023-09-19T01:35:11;100470.81;;;23.33;53.49
79415;BME280;68864;44.972;19.612;2023-09-19T01:37:38;100456.34;;;23.28;53.76
79415;BME280;68864;44.972;19.612;2023-09-19T01:40:10;100455.53;;;23.27;54.02
79415;BME280;68864;44.972;19.612;2023-09-19T01:42:44;100450.78;;;23.24;54.46
79415;BME280;68864;44.972;19.612;2023-09-19T01:45:19;100436.88;;;23.14;55.14
79415;BME280;68864;44.972;19.612;2023-09-19T01:47:52;100418.91;;;23.04;55.62
79415;BME280;68864;44.972;19.612;2023-09-19T01:50:29;100399.44;;;22.90;56.11
79415;BME280;68864;44.972;19.612;2023-09-19T01:53:02;100414.78;;;22.92;56.08
79415;BME280;68864;44.972;19.612;2023-09-19T01:55:30;100405.09;;;22.77;56.28
79415;BME280;68864;44.972;19.612;2023-09-19T01:58:06;100417.94;;;22.82;56.37
79415;BME280;68864;44.972;19.612;2023-09-19T02:00:37;100425.66;;;22.81;56.42
79415;BME280;68864;44.972;19.612;2023-09-19T02:03:08;100426.69;;;22.87;56.31
79415;BME280;68864;44.972;19.612;2023-09-19T02:05:35;100435.22;;;22.87;56.23
79415;BME280;68864;44.972;19.612;2023-09-19T02:08:03;100435.13;;;22.91;56.02
79415;BME280;68864;44.972;19.612;2023-09-19T02:10:30;100419.19;;;22.81;55.88
79415;BME280;68864;44.972;19.612;2023-09-19T02:12:57;100403.84;;;22.78;55.78
79415;BME280;68864;44.972;19.612;2023-09-19T02:15:24;100415.53;;;22.80;55.86
79415;BME280;68864;44.972;19.612;2023-09-19T02:17:52;100421.94;;;22.84;56.24
79415;BME280;68864;44.972;19.612;2023-09-19T02:20:19;100422.38;;;22.83;56.57
79415;BME280;68864;44.972;19.612;2023-09-19T02:22:46;100418.94;;;22.75;56.44
79415;BME280;68864;44.972;19.612;2023-09-19T02:25:15;100431.13;;;22.88;56.21
79415;BME280;68864;44.972;19.612;2023-09-19T02:27:43;100433.53;;;22.90;56.18
79415;BME280;68864;44.972;19.612;2023-09-19T02:30:11;100431.13;;;22.88;56.17
79415;BME280;68864;44.972;19.612;2023-09-19T02:32:40;100429.22;;;22.85;56.55
79415;BME280;68864;44.972;19.612;2023-09-19T02:35:09;100426.38;;;22.85;56.16
79415;BME280;68864;44.972;19.612;2023-09-19T02:37:36;100423.97;;;22.84;56.34
79415;BME280;68864;44.972;19.612;2023-09-19T02:40:03;100425.06;;;22.74;56.86
79415;BME280;68864;44.972;19.612;2023-09-19T02:42:38;100412.69;;;22.80;56.27
79415;BME280;68864;44.972;19.612;2023-09-19T02:45:06;100423.56;;;22.69;57.06
79415;BME280;68864;44.972;19.612;2023-09-19T02:47:33;100404.81;;;22.72;56.41
79415;BME280;68864;44.972;19.612;2023-09-19T02:50:00;100418.84;;;22.79;56.24
79415;BME280;68864;44.972;19.612;2023-09-19T02:52:28;100423.22;;;22.67;56.93
79415;BME280;68864;44.972;19.612;2023-09-19T02:54:55;100431.56;;;22.74;56.53
79415;BME280;68864;44.972;19.612;2023-09-19T02:57:22;100429.44;;;22.78;56.09
79415;BME280;68864;44.972;19.612;2023-09-19T02:59:49;100423.38;;;22.76;56.08
79415;BME280;68864;44.972;19.612;2023-09-19T03:02:17;100428.19;;;22.79;56.18
79415;BME280;68864;44.972;19.612;2023-09-19T03:04:44;100437.94;;;22.78;56.40
79415;BME280;68864;44.972;19.612;2023-09-19T03:07:12;100440.34;;;22.80;56.15
79415;BME280;68864;44.972;19.612;2023-09-19T03:09:41;100434.53;;;22.83;56.13
79415;BME280;68864;44.972;19.612;2023-09-19T03:12:08;100416.28;;;22.68;56.03
79415;BME280;68864;44.972;19.612;2023-09-19T03:14:34;100450.06;;;22.66;56.84
79415;BME280;68864;44.972;19.612;2023-09-19T03:17:01;100447.44;;;22.72;56.39
79415;BME280;68864;44.972;19.612;2023-09-19T03:19:30;100452.25;;;22.75;56.07
79415;BME280;68864;44.972;19.612;2023-09-19T03:21:58;100443.72;;;22.75;56.16
79415;BME280;68864;44.972;19.612;2023-09-19T03:24:25;100453.84;;;22.76;56.21
79415;BME280;68864;44.972;19.612;2023-09-19T03:26:54;100448.97;;;22.76;56.37
79415;BME280;68864;44.972;19.612;2023-09-19T03:29:21;100438.41;;;22.77;56.30
79415;BME280;68864;44.972;19.612;2023-09-19T03:31:48;100422.31;;;22.70;56.86
79415;BME280;68864;44.972;19.612;2023-09-19T03:34:14;100422.69;;;22.72;56.77
79415;BME280;68864;44.972;19.612;2023-09-19T03:36:41;100427.16;;;22.57;57.39
79415;BME280;68864;44.972;19.612;2023-09-19T03:39:08;100402.03;;;22.55;56.93
79415;BME280;68864;44.972;19.612;2023-09-19T03:41:36;100404.59;;;22.66;57.09
79415;BME280;68864;44.972;19.612;2023-09-19T03:44:04;100412.41;;;22.62;56.81
79415;BME280;68864;44.972;19.612;2023-09-19T03:46:31;100401.44;;;22.48;56.87
79415;BME280;68864;44.972;19.612;2023-09-19T03:48:58;100411.25;;;22.47;56.86
79415;BME280;68864;44.972;19.612;2023-09-19T03:51:25;100422.25;;;22.45;56.66
79415;BME280;68864;44.972;19.612;2023-09-19T03:53:51;100434.09;;;22.56;57.01
79415;BME280;68864;44.972;19.612;2023-09-19T03:56:18;100434.09;;;22.56;57.23
79415;BME280;68864;44.972;19.612;2023-09-19T03:58:45;100437.06;;;22.36;57.96
79415;BME280;68864;44.972;19.612;2023-09-19T04:01:13;100446.56;;;22.46;57.45
79415;BME280;68864;44.972;19.612;2023-09-19T04:03:40;100436.44;;;22.45;57.53
79415;BME280;68864;44.972;19.612;2023-09-19T04:06:13;100442.94;;;22.45;57.36
79415;BME280;68864;44.972;19.612;2023-09-19T04:08:38;100446.56;;;22.46;57.27
79415;BME280;68864;44.972;19.612;2023-09-19T04:11:05;100444.66;;;22.27;57.80
79415;BME280;68864;44.972;19.612;2023-09-19T04:13:32;100444.66;;;22.27;57.51
79415;BME280;68864;44.972;19.612;2023-09-19T04:15:59;100437.19;;;22.33;57.31
79415;BME280;68864;44.972;19.612;2023-09-19T04:18:27;100442.44;;;22.18;57.97
79415;BME280;68864;44.972;19.612;2023-09-19T04:20:56;100435.06;;;22.20;57.29
79415;BME280;68864;44.972;19.612;2023-09-19T04:23:23;100430.19;;;22.21;57.07
79415;BME280;68864;44.972;19.612;2023-09-19T04:25:50;100432.84;;;22.28;57.17
79415;BME280;68864;44.972;19.612;2023-09-19T04:28:17;100417.34;;;22.16;57.12
79415;BME280;68864;44.972;19.612;2023-09-19T04:30:44;100440.56;;;22.28;57.14
79415;BME280;68864;44.972;19.612;2023-09-19T04:33:10;100436.91;;;22.27;57.00
79415;BME280;68864;44.972;19.612;2023-09-19T04:35:41;100440.31;;;22.22;57.37
79415;BME280;68864;44.972;19.612;2023-09-19T04:38:08;100441.91;;;22.23;57.19
79415;BME280;68864;44.972;19.612;2023-09-19T04:40:35;100444.31;;;22.08;57.83
79415;BME280;68864;44.972;19.612;2023-09-19T04:43:03;100441.28;;;22.15;57.47
79415;BME280;68864;44.972;19.612;2023-09-19T04:45:31;100450.53;;;22.19;57.33
79415;BME280;68864;44.972;19.612;2023-09-19T04:47:58;100441.94;;;22.07;57.59
79415;BME280;68864;44.972;19.612;2023-09-19T04:50:24;100438.44;;;22.15;56.96
79415;BME280;68864;44.972;19.612;2023-09-19T04:52:54;100451.78;;;22.18;57.22
79415;BME280;68864;44.972;19.612;2023-09-19T04:55:21;100448.03;;;22.22;57.22
79415;BME280;68864;44.972;19.612;2023-09-19T04:57:48;100454.06;;;22.07;57.58
79415;BME280;68864;44.972;19.612;2023-09-19T05:00:16;100446.28;;;22.11;57.44
79415;BME280;68864;44.972;19.612;2023-09-19T05:02:44;100452.81;;;22.25;56.82
79415;BME280;68864;44.972;19.612;2023-09-19T05:05:11;100458.38;;;22.28;56.90
79415;BME280;68864;44.972;19.612;2023-09-19T05:07:40;100460.44;;;22.28;56.97
79415;BME280;68864;44.972;19.612;2023-09-19T05:10:09;100451.91;;;22.28;56.63
79415;BME280;68864;44.972;19.612;2023-09-19T05:12:37;100454.66;;;22.31;56.88
79415;BME280;68864;44.972;19.612;2023-09-19T05:15:04;100448.00;;;22.38;56.73
79415;BME280;68864;44.972;19.612;2023-09-19T05:17:32;100451.53;;;22.42;56.69
79415;BME280;68864;44.972;19.612;2023-09-19T05:20:00;100445.53;;;22.40;56.36
79415;BME280;68864;44.972;19.612;2023-09-19T05:22:40;100451.44;;;22.45;56.25
79415;BME280;68864;44.972;19.612;2023-09-19T05:25:10;100446.44;;;22.49;56.05
79415;BME280;68864;44.972;19.612;2023-09-19T05:27:38;100448.25;;;22.43;55.95
79415;BME280;68864;44.972;19.612;2023-09-19T05:30:06;100449.72;;;22.48;56.27
79415;BME280;68864;44.972;19.612;2023-09-19T05:32:33;100458.41;;;22.57;55.98
79415;BME280;68864;44.972;19.612;2023-09-19T05:35:00;100461.16;;;22.60;56.00
79415;BME280;68864;44.972;19.612;2023-09-19T05:37:27;100472.06;;;22.62;55.74
79415;BME280;68864;44.972;19.612;2023-09-19T05:39:54;100468.22;;;22.69;55.61
79415;BME280;68864;44.972;19.612;2023-09-19T05:42:24;100461.13;;;22.77;55.64
79415;BME280;68864;44.972;19.612;2023-09-19T05:44:51;100466.59;;;22.84;55.37
79415;BME280;68864;44.972;19.612;2023-09-19T05:47:18;100456.41;;;22.99;55.15
79415;BME280;68864;44.972;19.612;2023-09-19T05:49:45;100457.03;;;23.19;54.88
79415;BME280;68864;44.972;19.612;2023-09-19T05:52:12;100448.81;;;23.34;54.43
79415;BME280;68864;44.972;19.612;2023-09-19T05:54:39;100454.81;;;23.52;53.92
79415;BME280;68864;44.972;19.612;2023-09-19T05:57:08;100454.00;;;23.64;53.79
79415;BME280;68864;44.972;19.612;2023-09-19T05:59:39;100451.00;;;23.81;53.39
79415;BME280;68864;44.972;19.612;2023-09-19T06:02:08;100454.31;;;23.92;53.07
79415;BME280;68864;44.972;19.612;2023-09-19T06:04:35;100428.22;;;23.93;52.73
79415;BME280;68864;44.972;19.612;2023-09-19T06:07:01;100451.66;;;23.97;52.99
79415;BME280;68864;44.972;19.612;2023-09-19T06:09:31;100457.69;;;24.12;52.54
79415;BME280;68864;44.972;19.612;2023-09-19T06:11:58;100451.19;;;24.24;51.91
79415;BME280;68864;44.972;19.612;2023-09-19T06:14:25;100457.63;;;24.37;51.68
79415;BME280;68864;44.972;19.612;2023-09-19T06:16:53;100466.78;;;24.54;51.21
79415;BME280;68864;44.972;19.612;2023-09-19T06:19:20;100462.16;;;24.69;51.18
79415;BME280;68864;44.972;19.612;2023-09-19T06:21:48;100462.28;;;24.87;50.70
79415;BME280;68864;44.972;19.612;2023-09-19T06:24:14;100460.59;;;24.90;50.36
79415;BME280;68864;44.972;19.612;2023-09-19T06:26:41;100459.53;;;24.97;50.04
79415;BME280;68864;44.972;19.612;2023-09-19T06:29:09;100458.47;;;25.03;50.16
79415;BME280;68864;44.972;19.612;2023-09-19T06:31:36;100455.09;;;24.96;50.00
79415;BME280;68864;44.972;19.612;2023-09-19T06:34:06;100461.31;;;25.25;50.00
79415;BME280;68864;44.972;19.612;2023-09-19T06:36:33;100459.63;;;25.37;49.18
79415;BME280;68864;44.972;19.612;2023-09-19T06:39:00;100460.94;;;25.54;48.40
79415;BME280;68864;44.972;19.612;2023-09-19T06:41:29;100456.31;;;25.78;48.51
79415;BME280;68864;44.972;19.612;2023-09-19T06:43:57;100453.47;;;25.87;47.83
79415;BME280;68864;44.972;19.612;2023-09-19T06:46:23;100467.00;;;25.96;47.00
79415;BME280;68864;44.972;19.612;2023-09-19T06:48:50;100468.47;;;26.09;46.95
79415;BME280;68864;44.972;19.612;2023-09-19T06:51:20;100468.00;;;26.11;46.97
79415;BME280;68864;44.972;19.612;2023-09-19T06:53:47;100474.56;;;26.30;47.34
79415;BME280;68864;44.972;19.612;2023-09-19T06:56:13;100476.94;;;26.31;46.02
79415;BME280;68864;44.972;19.612;2023-09-19T06:58:40;100471.84;;;26.54;46.69
79415;BME280;68864;44.972;19.612;2023-09-19T07:01:08;100482.84;;;26.64;45.62
79415;BME280;68864;44.972;19.612;2023-09-19T07:03:35;100485.06;;;26.51;45.89
79415;BME280;68864;44.972;19.612;2023-09-19T07:06:02;100486.19;;;26.72;45.83
79415;BME280;68864;44.972;19.612;2023-09-19T07:08:31;100485.06;;;26.97;45.48
79415;BME280;68864;44.972;19.612;2023-09-19T07:10:58;100479.00;;;27.04;45.16
79415;BME280;68864;44.972;19.612;2023-09-19T07:13:25;100479.81;;;27.04;45.15
79415;BME280;68864;44.972;19.612;2023-09-19T07:15:51;100495.56;;;26.91;45.30
79415;BME280;68864;44.972;19.612;2023-09-19T07:18:18;100489.34;;;27.10;45.64
79415;BME280;68864;44.972;19.612;2023-09-19T07:20:45;100483.25;;;27.26;45.25
79415;BME280;68864;44.972;19.612;2023-09-19T07:23:15;100499.72;;;27.50;44.96
79415;BME280;68864;44.972;19.612;2023-09-19T07:25:45;100488.56;;;27.61;44.06
79415;BME280;68864;44.972;19.612;2023-09-19T07:28:12;100499.66;;;27.77;44.10
79415;BME280;68864;44.972;19.612;2023-09-19T07:30:39;100497.22;;;27.85;44.02
79415;BME280;68864;44.972;19.612;2023-09-19T07:33:07;100496.22;;;27.97;43.90
79415;BME280;68864;44.972;19.612;2023-09-19T07:35:36;100500.59;;;28.16;43.33
79415;BME280;68864;44.972;19.612;2023-09-19T07:38:06;100503.88;;;28.24;43.28
79415;BME280;68864;44.972;19.612;2023-09-19T07:40:33;100502.28;;;28.46;43.00
79415;BME280;68864;44.972;19.612;2023-09-19T07:43:01;100504.34;;;28.70;42.36
79415;BME280;68864;44.972;19.612;2023-09-19T07:45:30;100501.75;;;28.96;42.37
79415;BME280;68864;44.972;19.612;2023-09-19T07:47:56;100478.75;;;28.81;42.29
79415;BME280;68864;44.972;19.612;2023-09-19T07:50:23;100509.19;;;29.02;42.52
79415;BME280;68864;44.972;19.612;2023-09-19T07:52:52;100503.75;;;29.19;41.72
79415;BME280;68864;44.972;19.612;2023-09-19T07:55:20;100500.28;;;29.30;42.06
79415;BME280;68864;44.972;19.612;2023-09-19T07:57:49;100501.88;;;29.31;41.78
79415;BME280;68864;44.972;19.612;2023-09-19T08:00:17;100513.16;;;29.19;41.96
79415;BME280;68864;44.972;19.612;2023-09-19T08:02:45;100506.66;;;29.48;41.43
79415;BME280;68864;44.972;19.612;2023-09-19T08:05:13;100489.50;;;29.69;40.82
79415;BME280;68864;44.972;19.612;2023-09-19T08:07:43;100509.25;;;30.11;39.84
79415;BME280;68864;44.972;19.612;2023-09-19T08:10:10;100490.00;;;30.37;40.06
79415;BME280;68864;44.972;19.612;2023-09-19T08:12:38;100510.00;;;30.66;39.04
79415;BME280;68864;44.972;19.612;2023-09-19T08:15:11;100495.50;;;30.55;38.50
79415;BME280;68864;44.972;19.612;2023-09-19T08:17:39;100505.41;;;31.00;38.62
79415;BME280;68864;44.972;19.612;2023-09-19T08:20:07;100515.69;;;31.27;37.73
79415;BME280;68864;44.972;19.612;2023-09-19T08:22:42;100508.47;;;31.37;37.32
79415;BME280;68864;44.972;19.612;2023-09-19T08:25:11;100508.72;;;31.65;37.44
79415;BME280;68864;44.972;19.612;2023-09-19T08:27:38;100488.38;;;31.48;37.03
79415;BME280;68864;44.972;19.612;2023-09-19T08:30:06;100493.81;;;31.41;36.89
79415;BME280;68864;44.972;19.612;2023-09-19T08:32:33;100501.84;;;31.94;36.42
79415;BME280;68864;44.972;19.612;2023-09-19T08:35:01;100500.31;;;33.11;34.06
79415;BME280;68864;44.972;19.612;2023-09-19T08:37:29;100507.44;;;34.33;31.48
79415;BME280;68864;44.972;19.612;2023-09-19T08:39:56;100489.47;;;35.44;30.25
79415;BME280;68864;44.972;19.612;2023-09-19T08:42:23;100505.44;;;36.65;28.22
79415;BME280;68864;44.972;19.612;2023-09-19T08:44:50;100501.00;;;37.52;26.98
79415;BME280;68864;44.972;19.612;2023-09-19T08:47:25;100501.00;;;38.16;25.56
79415;BME280;68864;44.972;19.612;2023-09-19T08:50:04;100502.34;;;38.68;25.19
79415;BME280;68864;44.972;19.612;2023-09-19T08:52:41;100507.78;;;39.31;24.95
79415;BME280;68864;44.972;19.612;2023-09-19T08:55:11;100503.66;;;39.82;23.57
79415;BME280;68864;44.972;19.612;2023-09-19T08:57:38;100506.56;;;40.31;23.03
79415;BME280;68864;44.972;19.612;2023-09-19T09:00:09;100500.28;;;40.91;22.42
79415;BME280;68864;44.972;19.612;2023-09-19T09:02:41;100500.44;;;41.44;21.34
79415;BME280;68864;44.972;19.612;2023-09-19T09:05:10;100506.38;;;42.05;20.74
79415;BME280;68864;44.972;19.612;2023-09-19T09:07:38;100496.44;;;41.93;20.39
79415;BME280;68864;44.972;19.612;2023-09-19T09:10:06;100486.81;;;42.30;20.50
79415;BME280;68864;44.972;19.612;2023-09-19T09:12:34;100484.38;;;42.67;19.84
79415;BME280;68864;44.972;19.612;2023-09-19T09:15:03;100494.16;;;43.09;20.32
79415;BME280;68864;44.972;19.612;2023-09-19T09:17:30;100492.72;;;43.58;19.52
79415;BME280;68864;44.972;19.612;2023-09-19T09:19:57;100469.75;;;44.14;18.62
79415;BME280;68864;44.972;19.612;2023-09-19T09:22:25;100479.28;;;44.39;17.28
79415;BME280;68864;44.972;19.612;2023-09-19T09:24:52;100471.41;;;44.76;17.82
79415;BME280;68864;44.972;19.612;2023-09-19T09:27:20;100458.66;;;42.42;19.39
79415;BME280;68864;44.972;19.612;2023-09-19T09:29:50;100464.56;;;43.55;19.01
79415;BME280;68864;44.972;19.612;2023-09-19T09:32:21;100479.28;;;44.39;18.10
79415;BME280;68864;44.972;19.612;2023-09-19T09:34:50;100467.94;;;44.70;17.95
79415;BME280;68864;44.972;19.612;2023-09-19T09:37:18;100472.44;;;45.15;17.28
79415;BME280;68864;44.972;19.612;2023-09-19T09:39:52;100465.16;;;42.33;19.56
79415;BME280;68864;44.972;19.612;2023-09-19T09:42:34;100472.50;;;40.33;21.89
79415;BME280;68864;44.972;19.612;2023-09-19T09:45:15;100468.53;;;38.85;23.92
79415;BME280;68864;44.972;19.612;2023-09-19T09:47:46;100464.31;;;37.94;25.02
79415;BME280;68864;44.972;19.612;2023-09-19T09:50:25;100479.38;;;36.78;26.06
79415;BME280;68864;44.972;19.612;2023-09-19T09:52:55;100470.22;;;36.74;26.05
79415;BME280;68864;44.972;19.612;2023-09-19T09:56:02;100485.13;;;36.65;26.50
79415;BME280;68864;44.972;19.612;2023-09-19T09:58:31;100472.84;;;36.53;26.96
79415;BME280;68864;44.972;19.612;2023-09-19T10:00:59;100471.25;;;36.52;27.08
79415;BME280;68864;44.972;19.612;2023-09-19T10:03:35;100468.88;;;36.32;27.14
79415;BME280;68864;44.972;19.612;2023-09-19T10:06:09;100469.41;;;36.06;27.49
79415;BME280;68864;44.972;19.612;2023-09-19T10:09:02;100467.22;;;35.88;28.38
79415;BME280;68864;44.972;19.612;2023-09-19T10:11:34;100462.09;;;35.75;28.25
79415;BME280;68864;44.972;19.612;2023-09-19T10:14:03;100460.53;;;35.69;28.29
79415;BME280;68864;44.972;19.612;2023-09-19T10:16:32;100449.63;;;35.51;28.32
79415;BME280;68864;44.972;19.612;2023-09-19T10:19:02;100445.88;;;35.26;28.18
79415;BME280;68864;44.972;19.612;2023-09-19T10:21:32;100453.19;;;34.97;29.79
79415;BME280;68864;44.972;19.612;2023-09-19T10:24:00;100455.09;;;34.89;29.05
79415;BME280;68864;44.972;19.612;2023-09-19T10:26:28;100441.75;;;34.75;29.49
79415;BME280;68864;44.972;19.612;2023-09-19T10:28:59;100453.69;;;34.49;29.78
79415;BME280;68864;44.972;19.612;2023-09-19T10:31:29;100457.44;;;34.33;29.86
79415;BME280;68864;44.972;19.612;2023-09-19T10:34:03;100442.25;;;34.10;30.02
79415;BME280;68864;44.972;19.612;2023-09-19T10:36:32;100450.16;;;34.04;29.45
79415;BME280;68864;44.972;19.612;2023-09-19T10:39:02;100461.50;;;33.90;30.09
79415;BME280;68864;44.972;19.612;2023-09-19T10:41:34;100453.38;;;33.83;30.43
79415;BME280;68864;44.972;19.612;2023-09-19T10:44:04;100453.88;;;33.82;30.39
79415;BME280;68864;44.972;19.612;2023-09-19T10:46:31;100453.88;;;33.65;30.79
79415;BME280;68864;44.972;19.612;2023-09-19T10:48:59;100456.50;;;33.52;31.06
79415;BME280;68864;44.972;19.612;2023-09-19T10:51:29;100456.00;;;33.37;31.03
79415;BME280;68864;44.972;19.612;2023-09-19T10:54:02;100441.81;;;33.28;31.18
79415;BME280;68864;44.972;19.612;2023-09-19T10:56:35;100442.59;;;33.23;31.70
79415;BME280;68864;44.972;19.612;2023-09-19T10:59:09;100445.44;;;33.06;33.79
79415;BME280;68864;44.972;19.612;2023-09-19T11:01:44;100462.47;;;32.98;34.61
79415;BME280;68864;44.972;19.612;2023-09-19T11:04:23;100445.66;;;32.80;34.48
79415;BME280;68864;44.972;19.612;2023-09-19T11:07:02;100451.59;;;32.60;35.94
79415;BME280;68864;44.972;19.612;2023-09-19T11:09:46;100465.16;;;32.37;36.22
79415;BME280;68864;44.972;19.612;2023-09-19T11:12:48;100464.53;;;32.16;36.40
79415;BME280;68864;44.972;19.612;2023-09-19T11:21:42;100458.44;;;31.72;37.10
79415;BME280;68864;44.972;19.612;2023-09-19T11:24:32;100442.47;;;31.39;37.61
79415;BME280;68864;44.972;19.612;2023-09-19T11:27:14;100461.03;;;31.38;38.03
79415;BME280;68864;44.972;19.612;2023-09-19T11:29:43;100437.25;;;31.12;37.58
79415;BME280;68864;44.972;19.612;2023-09-19T11:32:10;100449.34;;;31.16;38.15
79415;BME280;68864;44.972;19.612;2023-09-19T11:34:45;100454.47;;;31.06;38.15
79415;BME280;68864;44.972;19.612;2023-09-19T11:44:32;100463.75;;;30.70;39.16
79415;BME280;68864;44.972;19.612;2023-09-19T11:47:00;100471.09;;;30.71;38.36
79415;BME280;68864;44.972;19.612;2023-09-19T11:49:30;100465.84;;;30.69;38.01
79415;BME280;68864;44.972;19.612;2023-09-19T11:51:58;100466.84;;;30.66;38.87
79415;BME280;68864;44.972;19.612;2023-09-19T11:54:27;100467.38;;;30.65;38.41
79415;BME280;68864;44.972;19.612;2023-09-19T11:56:59;100474.41;;;30.44;39.35
79415;BME280;68864;44.972;19.612;2023-09-19T11:59:28;100489.41;;;30.33;39.60
79415;BME280;68864;44.972;19.612;2023-09-19T12:01:56;100467.41;;;30.10;40.02
79415;BME280;68864;44.972;19.612;2023-09-19T12:04:37;100481.13;;;29.85;40.00
79415;BME280;68864;44.972;19.612;2023-09-19T12:07:06;100488.06;;;29.93;40.01
79415;BME280;68864;44.972;19.612;2023-09-19T12:09:39;100492.53;;;29.94;40.11
79415;BME280;68864;44.972;19.612;2023-09-19T12:12:08;100500.72;;;30.01;39.47
79415;BME280;68864;44.972;19.612;2023-09-19T12:14:38;100497.28;;;29.97;39.59
79415;BME280;68864;44.972;19.612;2023-09-19T12:17:07;100500.66;;;29.96;39.59
79415;BME280;68864;44.972;19.612;2023-09-19T12:19:37;100508.78;;;29.97;40.03
79415;BME280;68864;44.972;19.612;2023-09-19T12:22:04;100510.47;;;29.89;39.79
79415;BME280;68864;44.972;19.612;2023-09-19T12:24:31;100506.03;;;29.74;39.19
79415;BME280;68864;44.972;19.612;2023-09-19T12:27:01;100502.28;;;29.53;39.37
79415;BME280;68864;44.972;19.612;2023-09-19T12:29:32;100515.06;;;29.52;40.23
79415;BME280;68864;44.972;19.612;2023-09-19T12:32:08;100523.31;;;29.44;40.25
79415;BME280;68864;44.972;19.612;2023-09-19T12:34:35;100543.41;;;29.44;40.92
79415;BME280;68864;44.972;19.612;2023-09-19T12:37:09;100516.06;;;29.34;40.90
79415;BME280;68864;44.972;19.612;2023-09-19T12:39:42;100526.25;;;29.35;41.69
79415;BME280;68864;44.972;19.612;2023-09-19T12:42:10;100517.94;;;29.37;40.77
79415;BME280;68864;44.972;19.612;2023-09-19T12:44:42;100515.25;;;29.34;40.63
79415;BME280;68864;44.972;19.612;2023-09-19T12:47:11;100547.47;;;29.38;40.67
79415;BME280;68864;44.972;19.612;2023-09-19T12:50:09;100541.09;;;29.34;40.06
79415;BME280;68864;44.972;19.612;2023-09-19T12:52:41;100535.72;;;29.27;40.67
79415;BME280;68864;44.972;19.612;2023-09-19T12:55:23;100528.00;;;29.18;42.12
79415;BME280;68864;44.972;19.612;2023-09-19T12:58:00;100533.63;;;29.12;41.16
79415;BME280;68864;44.972;19.612;2023-09-19T13:00:39;100524.63;;;29.05;42.35
79415;BME280;68864;44.972;19.612;2023-09-19T13:03:09;100520.31;;;28.85;42.27
79415;BME280;68864;44.972;19.612;2023-09-19T13:05:51;100533.22;;;28.90;41.68
79415;BME280;68864;44.972;19.612;2023-09-19T13:08:21;100533.81;;;28.94;41.53